createdAt,value
2022-09-07T00:01:21.585Z,100
2022-09-07T00:06:19.561Z,100
2022-09-07T00:11:17.907Z,100
2022-09-07T00:16:15.927Z,100
2022-09-07T00:21:13.997Z,100
2022-09-07T00:26:12.015Z,100
2022-09-07T00:31:10.189Z,100
2022-09-07T00:36:08.161Z,100
2022-09-07T00:41:06.001Z,100
2022-09-07T00:46:04.197Z,100
2022-09-07T00:51:02.189Z,100
2022-09-07T00:56:00.312Z,100
2022-09-07T01:00:58.471Z,100
2022-09-07T01:05:56.683Z,100
2022-09-07T01:10:54.638Z,100
2022-09-07T01:15:52.860Z,100
2022-09-07T01:20:50.531Z,100
2022-09-07T01:25:48.487Z,100
2022-09-07T01:30:46.564Z,100
2022-09-07T01:35:44.421Z,100
2022-09-07T01:40:42.558Z,100
2022-09-07T01:45:40.542Z,100
2022-09-07T01:50:38.512Z,100
2022-09-07T01:55:36.563Z,100
2022-09-07T02:00:34.593Z,100
2022-09-07T02:05:32.540Z,100
2022-09-07T02:10:30.602Z,100
2022-09-07T02:15:28.907Z,100
2022-09-07T02:20:26.872Z,100
2022-09-07T02:25:24.849Z,100
2022-09-07T02:30:22.826Z,100
2022-09-07T02:35:20.996Z,100
2022-09-07T02:40:19.058Z,100
2022-09-07T02:45:16.870Z,100
2022-09-07T02:50:14.789Z,100
2022-09-07T02:55:12.902Z,100
2022-09-07T03:00:11.092Z,100
2022-09-07T03:05:09.329Z,100
2022-09-07T03:10:07.622Z,100
2022-09-07T03:15:05.697Z,100
2022-09-07T03:20:03.797Z,100
2022-09-07T03:25:01.776Z,100
2022-09-07T03:29:59.779Z,100
2022-09-07T03:34:57.613Z,100
2022-09-07T03:39:55.590Z,100
2022-09-07T03:44:53.730Z,100
2022-09-07T03:49:52.101Z,100
2022-09-07T03:54:50.078Z,100
2022-09-07T03:59:48.034Z,100
2022-09-07T04:04:46.125Z,100
2022-09-07T04:09:44.183Z,100
2022-09-07T04:14:42.259Z,100
2022-09-07T04:19:40.452Z,100
2022-09-07T04:24:38.954Z,100
2022-09-07T04:29:37.572Z,100
2022-09-07T04:34:36.046Z,100
2022-09-07T04:39:34.676Z,100
2022-09-07T04:44:33.375Z,100
2022-09-07T04:49:31.842Z,100
2022-09-07T04:54:30.366Z,100
2022-09-07T04:59:29.132Z,100
2022-09-07T05:04:27.576Z,100
2022-09-07T05:09:26.211Z,100
2022-09-07T05:14:25.102Z,98.7
2022-09-07T05:19:23.638Z,91.8
2022-09-07T05:24:22.936Z,84.2
2022-09-07T05:34:32.237Z,76.2
2022-09-07T05:39:22.606Z,70.8
2022-09-07T05:49:19.966Z,68
2022-09-07T05:54:18.491Z,65.4
2022-09-07T05:59:16.919Z,63.9
2022-09-07T06:04:15.191Z,61.3
2022-09-07T06:09:13.738Z,60.3
2022-09-07T06:14:12.144Z,56.8
2022-09-07T06:19:10.696Z,55
2022-09-07T06:24:09.901Z,52.4
2022-09-07T06:29:08.211Z,50.8
2022-09-07T06:34:05.971Z,51.2
2022-09-07T06:39:04.147Z,50
2022-09-07T06:44:02.926Z,49
2022-09-07T06:49:01.689Z,47
2022-09-07T06:58:57.988Z,44.7
2022-09-07T07:03:57.355Z,42.9
2022-09-07T07:08:55.502Z,42.4
2022-09-07T07:13:54.424Z,41.8
2022-09-07T07:18:53.599Z,39.5
2022-09-07T07:23:51.534Z,39.1
2022-09-07T07:29:04.751Z,38.7
2022-09-07T07:33:48.439Z,38.4
2022-09-07T07:39:02.905Z,36.2
2022-09-07T07:43:46.110Z,35.7
2022-09-07T07:48:43.857Z,35.6
2022-09-07T07:53:53.138Z,35.7
2022-09-07T07:58:40.703Z,34.6
2022-09-07T08:03:38.906Z,34.8
2022-09-07T08:08:37.162Z,33.1
2022-09-07T08:13:35.333Z,34.8
2022-09-07T08:18:33.773Z,32.7
2022-09-07T08:23:32.355Z,34.2
2022-09-07T08:28:31.277Z,33.6
2022-09-07T08:33:29.281Z,31.6
2022-09-07T08:38:28.266Z,30.5
2022-09-07T08:43:25.669Z,30.9
2022-09-07T08:48:24.023Z,31.5
2022-09-07T08:53:21.989Z,29.4
2022-09-07T08:58:45.084Z,28.9
2022-09-07T09:03:34.178Z,32.4
2022-09-07T09:08:15.969Z,30.8
2022-09-07T09:13:15.271Z,33.3
2022-09-07T09:18:14.468Z,31.3
2022-09-07T09:23:12.242Z,31
2022-09-07T09:28:10.084Z,31.1
2022-09-07T09:33:07.896Z,31.7
2022-09-07T09:38:05.504Z,32.8
2022-09-07T09:43:03.028Z,31.6
2022-09-07T09:48:01.788Z,30.9
2022-09-07T09:52:59.992Z,31.8
2022-09-07T10:07:52.947Z,33.5
2022-09-07T10:12:50.269Z,31.2
2022-09-07T10:17:48.629Z,29.9
2022-09-07T10:22:50.934Z,29
2022-09-07T10:27:45.209Z,30.3
2022-09-07T10:32:43.602Z,30.5
2022-09-07T10:37:41.381Z,29.1
2022-09-07T10:42:39.878Z,28.7
2022-09-07T10:47:38.697Z,27.7
2022-09-07T10:52:36.944Z,27
2022-09-07T10:57:34.685Z,27.5
2022-09-07T11:02:33.479Z,26.4
2022-09-07T11:07:31.213Z,25.8
2022-09-07T11:12:28.928Z,28.1
2022-09-07T11:17:27.567Z,26.9
2022-09-07T11:22:26.145Z,26.2
2022-09-07T11:27:24.649Z,25.1
2022-09-07T11:32:26.525Z,26.9
2022-09-07T11:37:23.584Z,26.7
2022-09-07T11:47:16.173Z,30.1
2022-09-07T11:52:16.829Z,26.6
2022-09-07T11:57:16.078Z,26.1
2022-09-07T12:02:14.078Z,25
2022-09-07T12:07:11.243Z,23.6
2022-09-07T12:12:09.428Z,23.7
2022-09-07T12:17:07.507Z,21.7
2022-09-07T12:22:04.892Z,23.9
2022-09-07T12:27:02.710Z,21.5
2022-09-07T12:32:52.533Z,22.9
2022-09-07T12:36:57.950Z,22.6
2022-09-07T12:46:53.230Z,23.7
2022-09-07T12:52:15.075Z,25.2
2022-09-07T12:57:28.918Z,28.7
2022-09-07T13:01:46.446Z,26.4
2022-09-07T13:11:39.665Z,26.3
2022-09-07T13:21:34.251Z,33
2022-09-07T13:26:31.502Z,34.3
2022-09-07T13:31:29.531Z,36.1
2022-09-07T13:36:27.604Z,37.5
2022-09-07T13:41:25.500Z,34.7
2022-09-07T13:46:23.312Z,35.5
2022-09-07T13:51:20.969Z,38.7
2022-09-07T13:56:18.662Z,38.3
2022-09-07T14:01:16.818Z,38.3
2022-09-07T14:06:14.526Z,41.9
2022-09-07T14:11:12.399Z,45.8
2022-09-07T14:16:10.463Z,42.9
2022-09-07T14:21:08.383Z,43
2022-09-07T14:26:22.049Z,40.6
2022-09-07T14:31:04.729Z,45.5
2022-09-07T14:36:13.239Z,49.7
2022-09-07T14:41:01.118Z,39
2022-09-07T14:45:59.470Z,44.2
2022-09-07T14:51:19.305Z,52.7
2022-09-07T14:55:55.250Z,52.3
2022-09-07T15:05:51.793Z,59.6
2022-09-07T15:15:47.771Z,63.4
2022-09-07T15:20:45.552Z,62.6
2022-09-07T15:25:48.123Z,65.1
2022-09-07T15:30:42.219Z,66.6
2022-09-07T15:35:40.054Z,66.7
2022-09-07T15:40:38.004Z,68.4
2022-09-07T15:45:35.989Z,64.6
2022-09-07T15:50:33.964Z,64.9
2022-09-07T15:55:31.765Z,66.2
2022-09-07T16:00:29.865Z,67.9
2022-09-07T16:05:30.872Z,70
2022-09-07T16:10:26.559Z,70.8
2022-09-07T16:15:26.945Z,73.8
2022-09-07T16:20:23.360Z,77.4
2022-09-07T16:25:21.438Z,76.5
2022-09-07T16:30:19.333Z,76.7
2022-09-07T16:35:17.575Z,73.3
2022-09-07T16:40:15.797Z,76.1
2022-09-07T16:50:11.558Z,82.3
2022-09-07T16:55:09.615Z,81.1
2022-09-07T17:00:08.380Z,75.5
2022-09-07T17:05:06.615Z,75
2022-09-07T17:10:04.777Z,75.2
2022-09-07T17:15:02.969Z,70.4
2022-09-07T17:20:00.884Z,68.3
2022-09-07T17:24:58.873Z,75
2022-09-07T17:29:57.005Z,73.4
2022-09-07T17:34:55.096Z,72.5
2022-09-07T17:39:53.128Z,68.6
2022-09-07T17:44:53.109Z,64.1
2022-09-07T17:49:50.035Z,63.1
2022-09-07T17:54:48.070Z,65.1
2022-09-07T18:04:47.579Z,62.5
2022-09-07T18:09:44.328Z,66.9
2022-09-07T18:14:41.962Z,72.3
2022-09-07T18:19:39.823Z,70.9
2022-09-07T18:24:37.808Z,69.9
2022-09-07T18:29:35.355Z,80.6
2022-09-07T18:34:33.035Z,85.1
2022-09-07T18:39:31.051Z,86.5
2022-09-07T18:49:27.172Z,88.3
2022-09-07T18:54:25.306Z,87.5
2022-09-07T18:59:23.831Z,82.8
2022-09-07T19:04:22.319Z,88.3
2022-09-07T19:09:20.203Z,91.4
2022-09-07T19:14:18.260Z,93.9
2022-09-07T19:19:16.559Z,93.8
2022-09-07T19:24:14.928Z,96.3
2022-09-07T19:29:12.944Z,95.3
2022-09-07T19:34:11.310Z,95.9
2022-09-07T19:39:09.462Z,97.1
2022-09-07T19:44:07.526Z,98.5
2022-09-07T19:49:05.962Z,98.2
2022-09-07T19:54:04.259Z,99.9
2022-09-07T19:59:02.626Z,97.6
2022-09-07T20:04:00.724Z,98.7
2022-09-07T20:08:58.582Z,98.7
2022-09-07T20:13:56.835Z,99.7
2022-09-07T20:18:54.973Z,100
2022-09-07T20:23:52.986Z,100
2022-09-07T20:28:58.258Z,100
2022-09-07T20:33:49.197Z,99.7
2022-09-07T20:38:47.311Z,100
2022-09-07T20:43:45.571Z,100
2022-09-07T20:48:43.722Z,100
2022-09-07T20:53:41.757Z,100
2022-09-07T20:58:40.054Z,100
2022-09-07T21:03:38.116Z,100
2022-09-07T21:08:35.981Z,100
2022-09-07T21:13:33.967Z,100
2022-09-07T21:18:31.799Z,100
2022-09-07T21:23:29.785Z,100
2022-09-07T21:28:27.975Z,100
2022-09-07T21:33:26.006Z,100
2022-09-07T21:38:24.134Z,100
2022-09-07T21:43:22.050Z,100
2022-09-07T21:48:20.500Z,100
2022-09-07T21:53:18.380Z,100
2022-09-07T21:58:16.365Z,100
2022-09-07T22:03:14.513Z,100
2022-09-07T22:08:12.642Z,100
2022-09-07T22:13:10.649Z,100
2022-09-07T22:18:08.895Z,100
2022-09-07T22:23:07.140Z,100
2022-09-07T22:28:05.669Z,100
2022-09-07T22:33:04.011Z,100
2022-09-07T22:38:02.155Z,100
2022-09-07T22:43:00.568Z,100
2022-09-07T22:47:58.865Z,100
2022-09-07T22:52:56.977Z,100
2022-09-07T22:57:55.043Z,100
2022-09-07T23:02:53.439Z,100
2022-09-07T23:07:51.625Z,100
2022-09-07T23:12:49.786Z,100
2022-09-07T23:17:47.956Z,100
2022-09-07T23:22:46.437Z,100
2022-09-07T23:27:44.714Z,100
2022-09-07T23:32:43.153Z,100
2022-09-07T23:37:41.968Z,100
2022-09-07T23:42:40.318Z,100
2022-09-07T23:47:38.422Z,100
2022-09-07T23:52:36.560Z,100
2022-09-07T23:57:34.540Z,100
